sensor_id;sensor_type;location;lat;lon;timestamp;temperature;humidity
13389;DHT22;6764;53.250;10.410;2023-02-28T00:00:07;1.50;99.90
13389;DHT22;6764;53.250;10.410;2023-02-28T00:02:40;1.50;99.90
13389;DHT22;6764;53.250;10.410;2023-02-28T00:05:07;1.70;99.90
13389;DHT22;6764;53.250;10.410;2023-02-28T00:07:33;1.70;99.90
13389;DHT22;6764;53.250;10.410;2023-02-28T00:09:59;1.70;99.90
13389;DHT22;6764;53.250;10.410;2023-02-28T00:12:25;1.60;99.90
13389;DHT22;6764;53.250;10.410;2023-02-28T00:14:51;1.60;99.90
13389;DHT22;6764;53.250;10.410;2023-02-28T00:17:17;1.60;99.90
13389;DHT22;6764;53.250;10.410;2023-02-28T00:19:49;1.60;99.90
13389;DHT22;6764;53.250;10.410;2023-02-28T00:22:16;1.50;99.90
13389;DHT22;6764;53.250;10.410;2023-02-28T00:24:42;1.50;99.90
13389;DHT22;6764;53.250;10.410;2023-02-28T00:27:08;1.40;99.90
13389;DHT22;6764;53.250;10.410;2023-02-28T00:29:34;1.30;99.90
13389;DHT22;6764;53.250;10.410;2023-02-28T00:32:00;1.30;99.90
13389;DHT22;6764;53.250;10.410;2023-02-28T00:34:26;1.30;99.90
13389;DHT22;6764;53.250;10.410;2023-02-28T00:36:52;1.40;99.90
13389;DHT22;6764;53.250;10.410;2023-02-28T00:39:17;1.30;99.90
13389;DHT22;6764;53.250;10.410;2023-02-28T00:41:43;1.30;99.90
13389;DHT22;6764;53.250;10.410;2023-02-28T00:44:09;1.30;99.90
13389;DHT22;6764;53.250;10.410;2023-02-28T00:46:34;1.30;99.90
13389;DHT22;6764;53.250;10.410;2023-02-28T00:49:00;1.30;99.90
13389;DHT22;6764;53.250;10.410;2023-02-28T00:51:26;1.20;99.90
13389;DHT22;6764;53.250;10.410;2023-02-28T00:53:51;1.20;99.90
13389;DHT22;6764;53.250;10.410;2023-02-28T00:56:17;1.20;99.90
13389;DHT22;6764;53.250;10.410;2023-02-28T00:58:43;1.20;99.90
13389;DHT22;6764;53.250;10.410;2023-02-28T01:01:08;1.20;99.90
13389;DHT22;6764;53.250;10.410;2023-02-28T01:03:34;1.20;99.90
13389;DHT22;6764;53.250;10.410;2023-02-28T01:06:00;1.20;99.90
13389;DHT22;6764;53.250;10.410;2023-02-28T01:08:26;1.20;99.90
13389;DHT22;6764;53.250;10.410;2023-02-28T01:10:52;1.30;99.90
13389;DHT22;6764;53.250;10.410;2023-02-28T01:13:18;1.20;99.90
13389;DHT22;6764;53.250;10.410;2023-02-28T01:15:50;1.20;99.90
13389;DHT22;6764;53.250;10.410;2023-02-28T01:18:17;1.10;99.90
13389;DHT22;6764;53.250;10.410;2023-02-28T01:20:42;1.20;99.90
13389;DHT22;6764;53.250;10.410;2023-02-28T01:23:08;1.20;99.90
13389;DHT22;6764;53.250;10.410;2023-02-28T01:25:35;1.10;99.90
13389;DHT22;6764;53.250;10.410;2023-02-28T01:28:01;1.20;99.90
13389;DHT22;6764;53.250;10.410;2023-02-28T01:30:27;1.20;99.90
13389;DHT22;6764;53.250;10.410;2023-02-28T01:32:52;1.20;99.90
13389;DHT22;6764;53.250;10.410;2023-02-28T01:35:19;1.10;99.90
13389;DHT22;6764;53.250;10.410;2023-02-28T01:37:45;1.10;99.90
13389;DHT22;6764;53.250;10.410;2023-02-28T01:40:11;1.10;99.90
13389;DHT22;6764;53.250;10.410;2023-02-28T01:42:37;1.10;99.90
13389;DHT22;6764;53.250;10.410;2023-02-28T01:45:19;1.00;99.90
13389;DHT22;6764;53.250;10.410;2023-02-28T01:47:49;1.00;99.90
13389;DHT22;6764;53.250;10.410;2023-02-28T01:50:19;1.00;99.90
13389;DHT22;6764;53.250;10.410;2023-02-28T01:52:47;1.00;99.90
13389;DHT22;6764;53.250;10.410;2023-02-28T01:55:15;1.00;99.90
13389;DHT22;6764;53.250;10.410;2023-02-28T01:57:47;1.00;99.90
13389;DHT22;6764;53.250;10.410;2023-02-28T02:00:15;1.00;99.90
13389;DHT22;6764;53.250;10.410;2023-02-28T02:02:43;1.00;99.90
13389;DHT22;6764;53.250;10.410;2023-02-28T02:05:12;1.00;99.90
13389;DHT22;6764;53.250;10.410;2023-02-28T02:07:41;1.00;99.90
13389;DHT22;6764;53.250;10.410;2023-02-28T02:10:35;1.00;99.90
13389;DHT22;6764;53.250;10.410;2023-02-28T02:16:18;0.90;99.90
13389;DHT22;6764;53.250;10.410;2023-02-28T02:22:21;0.80;99.90
13389;DHT22;6764;53.250;10.410;2023-02-28T02:24:59;0.80;99.90
13389;DHT22;6764;53.250;10.410;2023-02-28T02:46:54;0.90;99.90
13389;DHT22;6764;53.250;10.410;2023-02-28T02:49:31;0.90;99.90
13389;DHT22;6764;53.250;10.410;2023-02-28T02:52:02;0.80;99.90
13389;DHT22;6764;53.250;10.410;2023-02-28T02:54:31;0.90;99.90
13389;DHT22;6764;53.250;10.410;2023-02-28T02:57:00;0.80;99.90
13389;DHT22;6764;53.250;10.410;2023-02-28T02:59:28;0.80;99.90
13389;DHT22;6764;53.250;10.410;2023-02-28T03:02:00;0.80;99.90
13389;DHT22;6764;53.250;10.410;2023-02-28T03:04:32;0.70;99.90
13389;DHT22;6764;53.250;10.410;2023-02-28T03:06:58;0.60;99.90
13389;DHT22;6764;53.250;10.410;2023-02-28T03:09:25;0.70;99.90
13389;DHT22;6764;53.250;10.410;2023-02-28T03:11:53;0.60;99.90
13389;DHT22;6764;53.250;10.410;2023-02-28T03:20:17;0.50;99.90
13389;DHT22;6764;53.250;10.410;2023-02-28T03:22:50;0.50;99.90
13389;DHT22;6764;53.250;10.410;2023-02-28T03:25:34;0.50;99.90
13389;DHT22;6764;53.250;10.410;2023-02-28T03:30:49;0.40;99.90
13389;DHT22;6764;53.250;10.410;2023-02-28T03:33:44;0.40;99.90
13389;DHT22;6764;53.250;10.410;2023-02-28T03:36:18;0.30;99.90
13389;DHT22;6764;53.250;10.410;2023-02-28T03:41:41;0.30;99.90
13389;DHT22;6764;53.250;10.410;2023-02-28T03:44:26;0.30;99.90
13389;DHT22;6764;53.250;10.410;2023-02-28T03:47:09;0.30;99.90
13389;DHT22;6764;53.250;10.410;2023-02-28T03:49:52;0.30;99.90
13389;DHT22;6764;53.250;10.410;2023-02-28T03:52:21;0.30;99.90
13389;DHT22;6764;53.250;10.410;2023-02-28T03:54:51;0.40;99.90
13389;DHT22;6764;53.250;10.410;2023-02-28T03:57:33;0.30;99.90
13389;DHT22;6764;53.250;10.410;2023-02-28T04:00:06;0.40;99.90
13389;DHT22;6764;53.250;10.410;2023-02-28T04:02:33;0.40;99.90
13389;DHT22;6764;53.250;10.410;2023-02-28T04:05:00;0.30;99.90
13389;DHT22;6764;53.250;10.410;2023-02-28T04:07:29;0.20;99.90
13389;DHT22;6764;53.250;10.410;2023-02-28T04:09:55;0.10;99.90
13389;DHT22;6764;53.250;10.410;2023-02-28T04:12:21;0.10;99.90
13389;DHT22;6764;53.250;10.410;2023-02-28T04:14:48;0.10;99.90
13389;DHT22;6764;53.250;10.410;2023-02-28T04:17:15;0.10;99.90
13389;DHT22;6764;53.250;10.410;2023-02-28T04:19:40;0.10;99.90
13389;DHT22;6764;53.250;10.410;2023-02-28T04:22:07;0.20;99.90
13389;DHT22;6764;53.250;10.410;2023-02-28T04:24:33;0.20;99.90
13389;DHT22;6764;53.250;10.410;2023-02-28T04:26:58;0.20;99.90
13389;DHT22;6764;53.250;10.410;2023-02-28T04:29:29;0.30;99.90
13389;DHT22;6764;53.250;10.410;2023-02-28T04:31:56;0.30;99.90
13389;DHT22;6764;53.250;10.410;2023-02-28T04:34:26;0.20;99.90
13389;DHT22;6764;53.250;10.410;2023-02-28T04:36:52;0.20;99.90
13389;DHT22;6764;53.250;10.410;2023-02-28T04:39:20;0.20;99.90
13389;DHT22;6764;53.250;10.410;2023-02-28T04:41:46;0.10;99.90
13389;DHT22;6764;53.250;10.410;2023-02-28T04:44:13;0.10;99.90
13389;DHT22;6764;53.250;10.410;2023-02-28T04:46:38;0.10;99.90
13389;DHT22;6764;53.250;10.410;2023-02-28T04:49:04;0.10;99.90
13389;DHT22;6764;53.250;10.410;2023-02-28T04:51:30;0.20;99.90
13389;DHT22;6764;53.250;10.410;2023-02-28T04:53:55;0.10;99.90
13389;DHT22;6764;53.250;10.410;2023-02-28T04:56:21;0.10;99.90
13389;DHT22;6764;53.250;10.410;2023-02-28T04:58:47;0.10;99.90
13389;DHT22;6764;53.250;10.410;2023-02-28T05:01:28;0.10;99.90
13389;DHT22;6764;53.250;10.410;2023-02-28T05:03:56;0.10;99.90
13389;DHT22;6764;53.250;10.410;2023-02-28T05:06:24;0.10;99.90
13389;DHT22;6764;53.250;10.410;2023-02-28T05:08:50;0.20;99.90
13389;DHT22;6764;53.250;10.410;2023-02-28T05:11:27;0.10;99.90
13389;DHT22;6764;53.250;10.410;2023-02-28T05:13:55;0.10;99.90
13389;DHT22;6764;53.250;10.410;2023-02-28T05:16:21;0.00;99.90
13389;DHT22;6764;53.250;10.410;2023-02-28T05:18:47;0.10;99.90
13389;DHT22;6764;53.250;10.410;2023-02-28T05:21:24;0.10;99.90
13389;DHT22;6764;53.250;10.410;2023-02-28T05:23:50;0.00;99.90
13389;DHT22;6764;53.250;10.410;2023-02-28T05:26:16;0.00;99.90
13389;DHT22;6764;53.250;10.410;2023-02-28T05:28:42;0.10;99.90
13389;DHT22;6764;53.250;10.410;2023-02-28T05:31:10;0.10;99.90
13389;DHT22;6764;53.250;10.410;2023-02-28T05:33:36;0.20;99.90
13389;DHT22;6764;53.250;10.410;2023-02-28T05:36:02;0.20;99.90
13389;DHT22;6764;53.250;10.410;2023-02-28T05:38:28;0.00;99.90
13389;DHT22;6764;53.250;10.410;2023-02-28T05:40:53;-0.10;99.90
13389;DHT22;6764;53.250;10.410;2023-02-28T05:43:19;0.00;99.90
13389;DHT22;6764;53.250;10.410;2023-02-28T05:45:44;0.00;99.90
13389;DHT22;6764;53.250;10.410;2023-02-28T05:48:10;-0.20;99.90
13389;DHT22;6764;53.250;10.410;2023-02-28T05:50:36;-0.20;99.90
13389;DHT22;6764;53.250;10.410;2023-02-28T05:53:02;-0.30;99.90
13389;DHT22;6764;53.250;10.410;2023-02-28T05:55:28;-0.30;99.90
13389;DHT22;6764;53.250;10.410;2023-02-28T05:57:53;-0.30;99.90
13389;DHT22;6764;53.250;10.410;2023-02-28T06:00:19;-0.30;99.90
13389;DHT22;6764;53.250;10.410;2023-02-28T06:02:45;-0.30;99.90
13389;DHT22;6764;53.250;10.410;2023-02-28T06:05:15;-0.20;99.90
13389;DHT22;6764;53.250;10.410;2023-02-28T06:07:41;-0.20;99.90
13389;DHT22;6764;53.250;10.410;2023-02-28T06:10:08;-0.20;99.90
13389;DHT22;6764;53.250;10.410;2023-02-28T06:12:34;-0.30;99.90
13389;DHT22;6764;53.250;10.410;2023-02-28T06:15:00;-0.30;99.90
13389;DHT22;6764;53.250;10.410;2023-02-28T06:17:26;-0.40;99.90
13389;DHT22;6764;53.250;10.410;2023-02-28T06:19:51;-0.40;99.90
13389;DHT22;6764;53.250;10.410;2023-02-28T06:22:17;-0.30;99.90
13389;DHT22;6764;53.250;10.410;2023-02-28T06:24:42;-0.30;99.90
13389;DHT22;6764;53.250;10.410;2023-02-28T06:27:08;-0.20;99.90
13389;DHT22;6764;53.250;10.410;2023-02-28T06:29:34;-0.30;99.90
13389;DHT22;6764;53.250;10.410;2023-02-28T06:32:00;-0.40;99.90
13389;DHT22;6764;53.250;10.410;2023-02-28T06:34:26;-0.50;99.90
13389;DHT22;6764;53.250;10.410;2023-02-28T06:36:52;-0.40;99.90
13389;DHT22;6764;53.250;10.410;2023-02-28T06:39:18;-0.30;99.90
13389;DHT22;6764;53.250;10.410;2023-02-28T06:41:44;-0.30;99.90
13389;DHT22;6764;53.250;10.410;2023-02-28T06:44:15;-0.30;99.90
13389;DHT22;6764;53.250;10.410;2023-02-28T06:46:42;-0.30;99.90
13389;DHT22;6764;53.250;10.410;2023-02-28T06:49:08;-0.30;99.90
13389;DHT22;6764;53.250;10.410;2023-02-28T06:51:36;-0.20;99.90
13389;DHT22;6764;53.250;10.410;2023-02-28T06:54:02;-0.20;99.90
13389;DHT22;6764;53.250;10.410;2023-02-28T06:56:27;-0.30;99.90
13389;DHT22;6764;53.250;10.410;2023-02-28T06:58:53;-0.30;99.90
13389;DHT22;6764;53.250;10.410;2023-02-28T07:01:19;-0.30;99.90
13389;DHT22;6764;53.250;10.410;2023-02-28T07:03:45;-0.30;99.90
13389;DHT22;6764;53.250;10.410;2023-02-28T07:06:11;-0.40;99.90
13389;DHT22;6764;53.250;10.410;2023-02-28T07:08:37;-0.30;99.90
13389;DHT22;6764;53.250;10.410;2023-02-28T07:11:03;-0.30;99.90
13389;DHT22;6764;53.250;10.410;2023-02-28T07:13:29;-0.20;99.90
13389;DHT22;6764;53.250;10.410;2023-02-28T07:16:03;-0.10;99.90
13389;DHT22;6764;53.250;10.410;2023-02-28T07:18:29;-0.10;99.90
13389;DHT22;6764;53.250;10.410;2023-02-28T07:20:55;0.00;99.90
13389;DHT22;6764;53.250;10.410;2023-02-28T07:23:21;0.00;99.90
13389;DHT22;6764;53.250;10.410;2023-02-28T07:25:47;0.00;99.90
13389;DHT22;6764;53.250;10.410;2023-02-28T07:28:14;0.10;99.90
13389;DHT22;6764;53.250;10.410;2023-02-28T07:30:40;0.10;99.90
13389;DHT22;6764;53.250;10.410;2023-02-28T07:33:06;0.10;99.90
13389;DHT22;6764;53.250;10.410;2023-02-28T07:35:32;0.20;99.90
13389;DHT22;6764;53.250;10.410;2023-02-28T07:37:58;0.20;99.90
13389;DHT22;6764;53.250;10.410;2023-02-28T07:40:24;0.30;99.90
13389;DHT22;6764;53.250;10.410;2023-02-28T07:42:50;0.40;99.90
13389;DHT22;6764;53.250;10.410;2023-02-28T07:45:16;0.40;99.90
13389;DHT22;6764;53.250;10.410;2023-02-28T07:47:42;0.40;99.90
13389;DHT22;6764;53.250;10.410;2023-02-28T07:50:11;0.40;99.90
13389;DHT22;6764;53.250;10.410;2023-02-28T07:52:37;0.50;99.90
13389;DHT22;6764;53.250;10.410;2023-02-28T07:55:05;0.50;99.90
13389;DHT22;6764;53.250;10.410;2023-02-28T07:57:30;0.60;99.90
13389;DHT22;6764;53.250;10.410;2023-02-28T07:59:57;0.60;99.90
13389;DHT22;6764;53.250;10.410;2023-02-28T08:02:23;0.50;99.90
13389;DHT22;6764;53.250;10.410;2023-02-28T08:04:48;0.50;99.90
13389;DHT22;6764;53.250;10.410;2023-02-28T08:07:16;0.50;99.90
13389;DHT22;6764;53.250;10.410;2023-02-28T08:09:42;0.50;99.90
13389;DHT22;6764;53.250;10.410;2023-02-28T08:12:08;0.60;99.90
13389;DHT22;6764;53.250;10.410;2023-02-28T08:14:34;0.70;99.90
13389;DHT22;6764;53.250;10.410;2023-02-28T08:16:59;0.80;99.90
13389;DHT22;6764;53.250;10.410;2023-02-28T08:19:25;0.80;99.90
13389;DHT22;6764;53.250;10.410;2023-02-28T08:21:51;0.90;99.90
13389;DHT22;6764;53.250;10.410;2023-02-28T08:24:17;1.00;99.90
13389;DHT22;6764;53.250;10.410;2023-02-28T08:26:43;1.10;99.90
13389;DHT22;6764;53.250;10.410;2023-02-28T08:29:09;1.20;99.90
13389;DHT22;6764;53.250;10.410;2023-02-28T08:31:34;1.30;99.90
13389;DHT22;6764;53.250;10.410;2023-02-28T08:34:05;1.40;99.90
13389;DHT22;6764;53.250;10.410;2023-02-28T08:36:31;1.50;99.90
13389;DHT22;6764;53.250;10.410;2023-02-28T08:38:57;1.60;99.90
13389;DHT22;6764;53.250;10.410;2023-02-28T08:41:23;1.70;99.90
13389;DHT22;6764;53.250;10.410;2023-02-28T08:43:49;1.80;99.90
13389;DHT22;6764;53.250;10.410;2023-02-28T08:46:14;1.90;99.90
13389;DHT22;6764;53.250;10.410;2023-02-28T08:48:40;2.10;99.90
13389;DHT22;6764;53.250;10.410;2023-02-28T08:51:10;2.10;99.90
13389;DHT22;6764;53.250;10.410;2023-02-28T08:53:37;2.20;99.90
13389;DHT22;6764;53.250;10.410;2023-02-28T08:56:10;2.30;99.90
13389;DHT22;6764;53.250;10.410;2023-02-28T08:58:36;2.40;99.90
13389;DHT22;6764;53.250;10.410;2023-02-28T09:01:11;2.50;99.90
13389;DHT22;6764;53.250;10.410;2023-02-28T09:03:38;2.70;99.90
13389;DHT22;6764;53.250;10.410;2023-02-28T09:06:04;2.80;99.90
13389;DHT22;6764;53.250;10.410;2023-02-28T09:08:30;2.80;99.90
13389;DHT22;6764;53.250;10.410;2023-02-28T09:10:57;2.90;99.90
13389;DHT22;6764;53.250;10.410;2023-02-28T09:13:24;3.00;99.90
13389;DHT22;6764;53.250;10.410;2023-02-28T09:15:50;3.10;99.90
13389;DHT22;6764;53.250;10.410;2023-02-28T09:18:16;3.10;99.90
13389;DHT22;6764;53.250;10.410;2023-02-28T09:20:42;3.20;99.90
13389;DHT22;6764;53.250;10.410;2023-02-28T09:23:09;3.40;99.90
13389;DHT22;6764;53.250;10.410;2023-02-28T09:25:36;3.40;99.90
13389;DHT22;6764;53.250;10.410;2023-02-28T09:28:01;3.50;99.90
13389;DHT22;6764;53.250;10.410;2023-02-28T09:30:27;3.60;99.90
13389;DHT22;6764;53.250;10.410;2023-02-28T09:32:53;3.60;99.90
13389;DHT22;6764;53.250;10.410;2023-02-28T09:35:20;3.70;99.90
13389;DHT22;6764;53.250;10.410;2023-02-28T09:37:47;3.90;99.90
13389;DHT22;6764;53.250;10.410;2023-02-28T09:40:13;4.00;99.90
13389;DHT22;6764;53.250;10.410;2023-02-28T09:42:40;4.20;99.90
13389;DHT22;6764;53.250;10.410;2023-02-28T09:45:15;4.30;99.90
13389;DHT22;6764;53.250;10.410;2023-02-28T09:47:45;4.30;99.90
13389;DHT22;6764;53.250;10.410;2023-02-28T09:52:45;4.60;99.90
13389;DHT22;6764;53.250;10.410;2023-02-28T09:55:42;4.60;99.90
13389;DHT22;6764;53.250;10.410;2023-02-28T09:58:33;4.70;99.90
13389;DHT22;6764;53.250;10.410;2023-02-28T10:04:03;5.10;99.90
13389;DHT22;6764;53.250;10.410;2023-02-28T10:06:34;6.50;99.90
13389;DHT22;6764;53.250;10.410;2023-02-28T10:09:05;8.80;99.90
13389;DHT22;6764;53.250;10.410;2023-02-28T10:11:36;11.40;98.70
13389;DHT22;6764;53.250;10.410;2023-02-28T10:14:12;13.90;92.60
13389;DHT22;6764;53.250;10.410;2023-02-28T10:19:28;18.10;79.20
13389;DHT22;6764;53.250;10.410;2023-02-28T10:22:04;19.60;72.20
13389;DHT22;6764;53.250;10.410;2023-02-28T10:24:48;20.90;67.50
13389;DHT22;6764;53.250;10.410;2023-02-28T10:27:22;22.00;63.60
13389;DHT22;6764;53.250;10.410;2023-02-28T10:29:50;22.80;57.40
13389;DHT22;6764;53.250;10.410;2023-02-28T10:32:24;23.40;55.50
13389;DHT22;6764;53.250;10.410;2023-02-28T10:35:18;23.60;52.70
13389;DHT22;6764;53.250;10.410;2023-02-28T10:37:47;24.30;52.90
13389;DHT22;6764;53.250;10.410;2023-02-28T10:43:06;23.60;47.90
13389;DHT22;6764;53.250;10.410;2023-02-28T10:45:51;22.30;47.90
13389;DHT22;6764;53.250;10.410;2023-02-28T10:50:51;22.10;48.50
13389;DHT22;6764;53.250;10.410;2023-02-28T10:58:33;23.00;46.70
13389;DHT22;6764;53.250;10.410;2023-02-28T11:03:56;22.60;45.70
13389;DHT22;6764;53.250;10.410;2023-02-28T11:06:31;22.80;46.60
13389;DHT22;6764;53.250;10.410;2023-02-28T11:11:58;22.50;46.50
13389;DHT22;6764;53.250;10.410;2023-02-28T11:14:26;22.40;46.50
13389;DHT22;6764;53.250;10.410;2023-02-28T11:16:54;22.10;46.90
13389;DHT22;6764;53.250;10.410;2023-02-28T11:19:38;21.70;46.80
13389;DHT22;6764;53.250;10.410;2023-02-28T11:22:05;21.70;46.90
13389;DHT22;6764;53.250;10.410;2023-02-28T11:26:57;22.00;46.20
13389;DHT22;6764;53.250;10.410;2023-02-28T11:29:25;21.50;45.00
13389;DHT22;6764;53.250;10.410;2023-02-28T11:32:05;21.10;45.10
13389;DHT22;6764;53.250;10.410;2023-02-28T11:34:31;20.50;46.00
13389;DHT22;6764;53.250;10.410;2023-02-28T11:36:59;20.00;45.50
13389;DHT22;6764;53.250;10.410;2023-02-28T11:39:26;19.10;45.70
13389;DHT22;6764;53.250;10.410;2023-02-28T11:53:00;16.80;47.40
13389;DHT22;6764;53.250;10.410;2023-02-28T11:55:32;16.30;47.40
13389;DHT22;6764;53.250;10.410;2023-02-28T12:06:05;15.30;49.70
13389;DHT22;6764;53.250;10.410;2023-02-28T12:11:19;14.30;51.80
13389;DHT22;6764;53.250;10.410;2023-02-28T12:16:38;13.20;52.90
13389;DHT22;6764;53.250;10.410;2023-02-28T12:19:19;13.00;54.50
13389;DHT22;6764;53.250;10.410;2023-02-28T12:25:01;12.80;55.50
13389;DHT22;6764;53.250;10.410;2023-02-28T12:27:30;12.30;56.70
13389;DHT22;6764;53.250;10.410;2023-02-28T12:29:58;11.60;57.60
13389;DHT22;6764;53.250;10.410;2023-02-28T12:32:35;11.10;60.10
13389;DHT22;6764;53.250;10.410;2023-02-28T12:35:06;10.40;60.20
13389;DHT22;6764;53.250;10.410;2023-02-28T12:38:12;10.10;61.00
13389;DHT22;6764;53.250;10.410;2023-02-28T12:40:44;9.90;62.90
13389;DHT22;6764;53.250;10.410;2023-02-28T12:43:13;9.70;64.30
13389;DHT22;6764;53.250;10.410;2023-02-28T12:46:02;9.50;64.10
13389;DHT22;6764;53.250;10.410;2023-02-28T12:48:46;9.40;63.90
13389;DHT22;6764;53.250;10.410;2023-02-28T12:51:15;9.20;65.70
13389;DHT22;6764;53.250;10.410;2023-02-28T12:59:56;8.80;67.50
13389;DHT22;6764;53.250;10.410;2023-02-28T13:02:49;8.80;68.50
13389;DHT22;6764;53.250;10.410;2023-02-28T13:10:53;8.60;69.20
13389;DHT22;6764;53.250;10.410;2023-02-28T13:13:24;8.60;68.80
13389;DHT22;6764;53.250;10.410;2023-02-28T13:20:58;8.40;71.60
13389;DHT22;6764;53.250;10.410;2023-02-28T13:26:12;8.30;71.90
13389;DHT22;6764;53.250;10.410;2023-02-28T13:34:34;8.30;73.00
13389;DHT22;6764;53.250;10.410;2023-02-28T13:47:40;8.20;75.00
13389;DHT22;6764;53.250;10.410;2023-02-28T14:06:35;8.30;75.70
13389;DHT22;6764;53.250;10.410;2023-02-28T14:11:39;8.30;76.70
13389;DHT22;6764;53.250;10.410;2023-02-28T14:14:07;8.30;76.70
13389;DHT22;6764;53.250;10.410;2023-02-28T14:16:40;8.30;77.60
13389;DHT22;6764;53.250;10.410;2023-02-28T14:21:39;8.30;77.30
13389;DHT22;6764;53.250;10.410;2023-02-28T14:32:21;8.20;77.50
13389;DHT22;6764;53.250;10.410;2023-02-28T14:37:36;8.30;77.20
13389;DHT22;6764;53.250;10.410;2023-02-28T14:40:03;8.30;76.90
13389;DHT22;6764;53.250;10.410;2023-02-28T14:42:34;8.30;77.60
13389;DHT22;6764;53.250;10.410;2023-02-28T14:45:02;8.40;77.80
13389;DHT22;6764;53.250;10.410;2023-02-28T14:47:31;8.40;77.80
13389;DHT22;6764;53.250;10.410;2023-02-28T14:49:58;8.50;77.30
13389;DHT22;6764;53.250;10.410;2023-02-28T14:52:30;8.50;77.30
13389;DHT22;6764;53.250;10.410;2023-02-28T14:55:03;8.50;77.40
13389;DHT22;6764;53.250;10.410;2023-02-28T14:57:35;8.40;77.10
13389;DHT22;6764;53.250;10.410;2023-02-28T15:00:15;8.40;77.10
13389;DHT22;6764;53.250;10.410;2023-02-28T15:02:42;8.40;77.90
13389;DHT22;6764;53.250;10.410;2023-02-28T15:07:47;8.40;77.20
13389;DHT22;6764;53.250;10.410;2023-02-28T15:13:05;8.20;77.50
13389;DHT22;6764;53.250;10.410;2023-02-28T15:15:43;8.20;77.70
13389;DHT22;6764;53.250;10.410;2023-02-28T15:20:49;8.10;77.70
13389;DHT22;6764;53.250;10.410;2023-02-28T15:23:16;8.20;77.30
13389;DHT22;6764;53.250;10.410;2023-02-28T15:25:42;8.10;77.50
13389;DHT22;6764;53.250;10.410;2023-02-28T15:28:16;8.00;77.50
13389;DHT22;6764;53.250;10.410;2023-02-28T15:30:56;8.00;76.70
13389;DHT22;6764;53.250;10.410;2023-02-28T15:33:27;8.00;76.70
13389;DHT22;6764;53.250;10.410;2023-02-28T15:36:14;7.90;76.60
13389;DHT22;6764;53.250;10.410;2023-02-28T15:38:40;7.80;75.40
13389;DHT22;6764;53.250;10.410;2023-02-28T15:41:31;7.70;75.60
13389;DHT22;6764;53.250;10.410;2023-02-28T15:44:25;7.70;76.00
13389;DHT22;6764;53.250;10.410;2023-02-28T15:47:04;7.70;75.30
13389;DHT22;6764;53.250;10.410;2023-02-28T15:49:39;7.70;74.90
13389;DHT22;6764;53.250;10.410;2023-02-28T15:52:05;7.60;75.80
13389;DHT22;6764;53.250;10.410;2023-02-28T15:54:35;7.60;75.80
13389;DHT22;6764;53.250;10.410;2023-02-28T15:57:06;7.50;74.70
13389;DHT22;6764;53.250;10.410;2023-02-28T15:59:35;7.50;75.00
13389;DHT22;6764;53.250;10.410;2023-02-28T16:04:35;7.30;73.10
13389;DHT22;6764;53.250;10.410;2023-02-28T16:07:12;7.30;72.90
13389;DHT22;6764;53.250;10.410;2023-02-28T16:09:37;7.30;74.40
13389;DHT22;6764;53.250;10.410;2023-02-28T16:12:03;7.20;74.10
13389;DHT22;6764;53.250;10.410;2023-02-28T16:14:31;7.20;74.60
13389;DHT22;6764;53.250;10.410;2023-02-28T16:17:03;7.20;75.10
13389;DHT22;6764;53.250;10.410;2023-02-28T16:19:29;7.10;76.50
13389;DHT22;6764;53.250;10.410;2023-02-28T16:21:54;7.10;76.50
13389;DHT22;6764;53.250;10.410;2023-02-28T16:24:20;7.00;77.40
13389;DHT22;6764;53.250;10.410;2023-02-28T16:26:47;7.00;78.00
13389;DHT22;6764;53.250;10.410;2023-02-28T16:29:20;6.90;78.20
13389;DHT22;6764;53.250;10.410;2023-02-28T16:31:48;6.90;76.90
13389;DHT22;6764;53.250;10.410;2023-02-28T16:34:13;6.80;77.30
13389;DHT22;6764;53.250;10.410;2023-02-28T16:36:39;6.90;77.80
13389;DHT22;6764;53.250;10.410;2023-02-28T16:39:05;6.80;77.90
13389;DHT22;6764;53.250;10.410;2023-02-28T16:41:31;6.70;77.90
13389;DHT22;6764;53.250;10.410;2023-02-28T16:43:57;6.70;77.90
13389;DHT22;6764;53.250;10.410;2023-02-28T16:46:28;6.70;78.20
13389;DHT22;6764;53.250;10.410;2023-02-28T16:48:55;6.60;79.20
13389;DHT22;6764;53.250;10.410;2023-02-28T16:51:21;6.50;79.50
13389;DHT22;6764;53.250;10.410;2023-02-28T16:53:46;6.40;80.40
13389;DHT22;6764;53.250;10.410;2023-02-28T16:56:18;6.40;81.00
13389;DHT22;6764;53.250;10.410;2023-02-28T16:58:44;6.40;81.40
13389;DHT22;6764;53.250;10.410;2023-02-28T17:01:11;6.30;82.00
13389;DHT22;6764;53.250;10.410;2023-02-28T17:03:36;6.40;82.30
13389;DHT22;6764;53.250;10.410;2023-02-28T17:06:03;6.30;82.50
13389;DHT22;6764;53.250;10.410;2023-02-28T17:08:30;6.30;82.60
13389;DHT22;6764;53.250;10.410;2023-02-28T17:10:57;6.30;83.10
13389;DHT22;6764;53.250;10.410;2023-02-28T17:13:23;6.20;83.50
13389;DHT22;6764;53.250;10.410;2023-02-28T17:15:49;6.20;83.40
13389;DHT22;6764;53.250;10.410;2023-02-28T17:18:17;6.20;82.80
13389;DHT22;6764;53.250;10.410;2023-02-28T17:20:44;6.20;83.00
13389;DHT22;6764;53.250;10.410;2023-02-28T17:23:10;6.10;83.40
13389;DHT22;6764;53.250;10.410;2023-02-28T17:25:36;6.10;83.50
13389;DHT22;6764;53.250;10.410;2023-02-28T17:28:02;6.10;84.10
13389;DHT22;6764;53.250;10.410;2023-02-28T17:30:28;6.10;84.70
13389;DHT22;6764;53.250;10.410;2023-02-28T17:32:54;6.00;85.20
13389;DHT22;6764;53.250;10.410;2023-02-28T17:35:21;6.00;85.20
13389;DHT22;6764;53.250;10.410;2023-02-28T17:37:47;6.00;84.60
13389;DHT22;6764;53.250;10.410;2023-02-28T17:40:18;6.00;85.50
13389;DHT22;6764;53.250;10.410;2023-02-28T17:42:44;5.90;85.60
13389;DHT22;6764;53.250;10.410;2023-02-28T17:45:11;5.90;86.50
13389;DHT22;6764;53.250;10.410;2023-02-28T17:47:37;5.90;87.50
13389;DHT22;6764;53.250;10.410;2023-02-28T17:50:03;5.90;88.10
13389;DHT22;6764;53.250;10.410;2023-02-28T17:52:29;5.90;88.80
13389;DHT22;6764;53.250;10.410;2023-02-28T17:54:55;5.80;89.30
13389;DHT22;6764;53.250;10.410;2023-02-28T17:57:20;5.70;90.00
13389;DHT22;6764;53.250;10.410;2023-02-28T17:59:46;5.70;90.50
13389;DHT22;6764;53.250;10.410;2023-02-28T18:02:12;5.50;91.10
13389;DHT22;6764;53.250;10.410;2023-02-28T18:04:38;5.40;91.50
13389;DHT22;6764;53.250;10.410;2023-02-28T18:07:06;5.30;91.90
13389;DHT22;6764;53.250;10.410;2023-02-28T18:09:32;5.30;92.50
13389;DHT22;6764;53.250;10.410;2023-02-28T18:11:58;5.20;93.10
13389;DHT22;6764;53.250;10.410;2023-02-28T18:14:24;5.10;93.50
13389;DHT22;6764;53.250;10.410;2023-02-28T18:16:52;5.10;93.90
13389;DHT22;6764;53.250;10.410;2023-02-28T18:19:18;5.00;94.40
13389;DHT22;6764;53.250;10.410;2023-02-28T18:21:45;4.90;94.80
13389;DHT22;6764;53.250;10.410;2023-02-28T18:24:12;4.90;95.30
13389;DHT22;6764;53.250;10.410;2023-02-28T18:26:39;4.80;95.60
13389;DHT22;6764;53.250;10.410;2023-02-28T18:29:06;4.70;96.00
13389;DHT22;6764;53.250;10.410;2023-02-28T18:31:32;4.70;96.40
13389;DHT22;6764;53.250;10.410;2023-02-28T18:33:58;4.70;96.70
13389;DHT22;6764;53.250;10.410;2023-02-28T18:36:25;4.60;97.00
13389;DHT22;6764;53.250;10.410;2023-02-28T18:38:51;4.50;97.30
13389;DHT22;6764;53.250;10.410;2023-02-28T18:41:18;4.50;97.60
13389;DHT22;6764;53.250;10.410;2023-02-28T18:43:48;4.50;98.00